To NAV CANADA Home Page Login to a new session Search on AWWS site Disclaimer Vers la page française équivalente Tips FAQ What's new on the site To the Forecasts and Observations / NOTAM section To "File a Flight Plan" website Publications and other links Update of the User's profile FIC Telephone Numbers My Weather Data Folder Route Weather Data Regional Weather Data Local Weather Data To the Forecasts and Observations / NOTAM section
Request Generated 03/19/2019 at 23:03:45 UTC . Weather information available at that time is displayed.

METAR/TAF

MUSKRAT DAM/ON    (show WxCam)

METAR CZMD 192300Z AUTO 20004KT 4SM -SN -UP BKN022 OVC048 01/M00 A2969 RMK SLP074=
SPECI CZMD 192258Z AUTO 20005KT 4SM -SN -UP BKN022 BKN035 OVC048 01/M00 A2969 RMK SLP073=
SPECI CZMD 192254Z AUTO 20006KT 4SM -RA -UP BR BKN024 OVC033 01/M00 A2969 RMK SLP073=
SPECI CZMD 192252Z AUTO 20006KT 6SM -RA -UP BR BKN024 BKN033 OVC050 01/M00 A2969 RMK SLP073=
SPECI CZMD 192251Z AUTO 20006KT 8SM -RA BKN024 BKN033 OVC050 01/M00 A2969 RMK SLP073=
SPECI CZMD 192249Z AUTO 21005KT 9SM -RA BKN026 BKN033 OVC055 02/M00 A2969 RMK SLP073=
SPECI CZMD 192218Z AUTO 21009KT 9SM BKN060 OVC074 02/M00 A2968 RMK SLP070=
SPECI CZMD 192207Z AUTO 19007G15KT 9SM -RA BKN070 OVC086 02/M00 A2967 RMK SLP067=
METAR CZMD 192200Z AUTO 20008G15KT 9SM SCT065 OVC080 02/M00 A2967 RMK SLP068=
SPECI CZMD 192143Z AUTO 20009KT 9SM SCT040 SCT060 OVC085 02/M00 A2967 RMK SLP069=
SPECI CZMD 192136Z AUTO 19008KT 9SM -UP FEW040 SCT060 BKN077 OVC089 02/M00 A2967 RMK SLP069=
SPECI CZMD 192130Z AUTO 20007KT 9SM -RA -UP FEW013 SCT035 BKN043 OVC089 01/M00 A2968 RMK SLP070=
SPECI CZMD 192108Z AUTO 20010G15KT 9SM -RA SCT013 SCT032 BKN045 OVC076 01/M00 A2969 RMK SLP073=
SPECI CZMD 192102Z AUTO 20010G16KT 9SM -RA BKN013 OVC050 01/M00 A2969 RMK SLP075=
METAR CZMD 192100Z AUTO 20012KT 9SM -RA -UP SCT011 BKN050 OVC055 01/M00 A2969 RMK SLP076=
SPECI CZMD 192059Z AUTO 20010G16KT 9SM -RA -UP SCT011 OVC050 01/M00 A2969 RMK SLP075=

*** REMARK        : Forecast period has ended; this was the last TAF issued
*** REMARQUE : La période de prévision est échue; ceci était le dernier TAF qui a été émis
TAF AMD CZMD 192004Z 1920/1922 22010G20KT 6SM -SNRA SCT008 OVC030
TEMPO 1920/1922 2SM -SN OVC008
RMK FCST BASED ON AUTO OBS. NXT FCST WILL BE ISSUED AT 200945Z=
Your time UTC time
Weather data provided by Environment Canada and NAV CANADA